»·PEaware :: AAL360 KMFR-KOTH

AAL360 :: KMFR-KOTH

FLIGHT INFORMATION

Flight Status: Arrived
Operator:
American Airlines
More flights by this operator :: More flights under this callsign
Pilot: Sergei F. (8485)
Aircraft: BOEING 737-300
(B733)
More flights by this aircraft type
Origin: KMFR Rogue Valley Intl-Medford
United States
Destination: KOTH North Bend Mun
United States
More flights between these airports :: More routes between these airports
Route: +JAKSN1 OED V287 OTH
File this flight plan on PilotEdge
Remarks:
Altitude:
(Current/Filed)
10,000ft
Speed:
(Current/Filed)
250kts
Departed: 27-Oct-17 06:24 PM
Arrived: 27-Oct-17 06:49 PM
Distance/Time
Traveled:
87nm/0:24
Distance/Time
To Go:
Arrived

Flight Plot

Page will automatically refresh every two minutes.

Flight plan parsing failed; only flown route is shown


Map Options




Map Legend


Flown Route
Filed Route
Departure Airport
Arrival Airport
Navaid (VOR, NDB)
Fix

Horizontal Profiles

Position Reports

Time Latitude Longitude Heading Altitude Ground
Speed
27-Oct-17 18:00 42.368205 -122.873140 248 1320ft 0kts
27-Oct-17 18:01 42.368205 -122.873140 248 1320ft 0kts
27-Oct-17 18:02 42.368205 -122.873140 248 1320ft 0kts
27-Oct-17 18:03 42.368205 -122.873140 248 1320ft 0kts
27-Oct-17 18:04 42.368205 -122.873140 248 1320ft 0kts
27-Oct-17 18:05 42.368205 -122.873140 248 1320ft 0kts
27-Oct-17 18:06 42.368205 -122.873140 248 1320ft 0kts
27-Oct-17 18:07 42.368205 -122.873140 248 1320ft 0kts
27-Oct-17 18:08 42.368205 -122.873140 248 1320ft 0kts
27-Oct-17 18:09 42.368205 -122.873140 248 1320ft 0kts
27-Oct-17 18:10 42.368205 -122.873140 248 1320ft 0kts
27-Oct-17 18:11 42.368205 -122.873140 248 1320ft 0kts
27-Oct-17 18:12 42.368205 -122.873140 248 1320ft 0kts
27-Oct-17 18:13 42.368205 -122.873140 248 1320ft 0kts
27-Oct-17 18:14 42.368205 -122.873140 248 1320ft 0kts
27-Oct-17 18:15 42.368205 -122.873140 248 1320ft 0kts
27-Oct-17 18:16 42.368205 -122.873140 248 1320ft 0kts
27-Oct-17 18:17 42.368205 -122.873140 248 1320ft 0kts
27-Oct-17 18:18 42.368302 -122.872810 248 1320ft 0kts
27-Oct-17 18:19 42.368504 -122.872125 248 1322ft 0kts
27-Oct-17 18:20 42.368650 -122.871631 248 1322ft 0kts
27-Oct-17 18:21 42.368677 -122.871542 336 1322ft 0kts
27-Oct-17 18:22 42.368677 -122.871542 336 1322ft 0kts
27-Oct-17 18:23 42.368677 -122.871542 336 1322ft 0kts
27-Oct-17 18:24 42.370767 -122.872645 338 1318ft 17kts
27-Oct-17 18:25 42.375459 -122.875109 338 1312ft 16kts
27-Oct-17 18:26 42.379968 -122.877536 338 1306ft 19kts
27-Oct-17 18:27 42.384871 -122.880107 339 1300ft 13kts
27-Oct-17 18:28 42.385981 -122.879163 114 1300ft 5kts
27-Oct-17 18:29 42.382184 -122.877066 158 1305ft 100kts
27-Oct-17 18:30 42.342849 -122.877522 246 3806ft 184kts
27-Oct-17 18:31 42.378730 -122.918398 337 6050ft 199kts
27-Oct-17 18:32 42.436265 -122.921400 5 9318ft 239kts
27-Oct-17 18:33 42.509712 -122.942548 303 9965ft 317kts
27-Oct-17 18:34 42.528087 -123.054512 317 10001ft 313kts
27-Oct-17 18:35 42.603162 -123.111265 329 9992ft 312kts
27-Oct-17 18:36 42.669417 -123.168757 326 9985ft 312kts
27-Oct-17 18:37 42.733257 -123.247454 315 10008ft 312kts
27-Oct-17 18:38 42.794603 -123.329275 316 10016ft 310kts
27-Oct-17 18:39 42.855736 -123.410698 316 10020ft 310kts
27-Oct-17 18:40 42.916799 -123.492232 316 10020ft 310kts
27-Oct-17 18:41 42.978375 -123.574681 316 10014ft 318kts
27-Oct-17 18:42 43.039091 -123.656544 314 9543ft 298kts
27-Oct-17 18:43 43.095802 -123.733364 314 8136ft 280kts
27-Oct-17 18:44 43.149108 -123.805103 313 6735ft 267kts
27-Oct-17 18:45 43.200232 -123.874264 314 5352ft 256kts
27-Oct-17 18:46 43.246380 -123.936855 313 5023ft 203kts
27-Oct-17 18:47 43.285542 -123.990301 313 4991ft 197kts
27-Oct-17 18:48 43.325351 -124.038137 322 4251ft 183kts
27-Oct-17 18:49 43.363303 -124.078110 320 3434ft 151kts
27-Oct-17 18:50 43.393897 -124.114047 316 2443ft 140kts
27-Oct-17 18:51 43.415359 -124.154330 293 1563ft 130kts
27-Oct-17 18:52 43.426405 -124.201118 281 715ft 127kts
27-Oct-17 18:53 43.420099 -124.247488 238 17ft 115kts
27-Oct-17 18:54 43.415876 -124.255775 148 18ft 0kts
27-Oct-17 18:55 43.416370 -124.253527 60 26ft 9kts
27-Oct-17 18:56 43.418068 -124.249377 60 28ft 16kts
27-Oct-17 18:57 43.417937 -124.246154 149 23ft 11kts
27-Oct-17 18:58 43.415253 -124.244181 213 24ft 2kts
27-Oct-17 18:59 43.414938 -124.244943 272 27ft 1kts
27-Oct-17 19:00 43.415044 -124.245298 305 28ft 2kts
27-Oct-17 19:01 43.415334 -124.245400 63 28ft 0kts
27-Oct-17 19:02 43.415334 -124.245401 63 28ft 0kts
27-Oct-17 19:03 43.415334 -124.245401 63 28ft 0kts
27-Oct-17 19:04 43.415334 -124.245401 63 28ft 0kts

Navigation Log

Ident Type
Flight plan parsing failed, navigation log unavailable